Charlotte, North Carolina
Current Conditions -  °F | °C
As of 12:52 AM on Monday 22 Dec 2014 (Local Time) from KCLT Reporting Station
Light Rain Light Rain  
Wind Chill: 39°   Ceiling: 3600
Heat Index: 43°   Visibility: 4mi
Dew Point: 38°   Wind: 7mph
Humidity: 82%   Direction: 50°NE
Pressure: 30.17"   Gusts: NA
Location:  35.22°N, 80.84°W
Report Text: KCLT 220552Z 05006KT 4SM -RA OVC036 06/03 A3017 RMK AO2 RAB20 SLP217 P0001 60001 T00610033 10089 20061 57008
Loading
Personal Weather Stations






























Interactive Weather Map New forecast layout! Learn more

10-Day Weather Forecast

Advertisements
Track Severe Weather on mobile